Sunday, November 19, 2017, 4:58 AM GMT
Back to Local

CWRN, Hart Island Meteorological Aeronautical Presentation System

Location: , , Canada Lat: 45.35
Local Time: 4:58 AM GMT ( 4:58 GMT) Lon: -60.983
Time Zone: GMT Elev: 13 ft

Show me the last for .
Show Coded

Time T Td Feel RH Dir Speed Gust Alt SLP Vis Weather Sky Remarks
2017-11-19 04:00 38 34 31 83 270° 12 - - 29.78 0 None
2017-11-19 03:00 38 34 28 84 280° 14 21 - 29.77 0 Peak wind: 21 mph (19 kts) from 290° at 49 min
2017-11-19 02:00 38 35 29 86 280° 14 20 - 29.77 0 Peak wind: 24 mph (21 kts) from 280° at 33 min
2017-11-19 01:00 39 35 30 86 270° 16 - - 29.77 0 Peak wind: 23 mph (20 kts) from 270° at 07 min
2017-11-19 00:00 39 35 28 86 280° 17 24 - 29.75 0 Peak wind: 27 mph (24 kts) from 300° at 28 min
2017-11-18 23:00 38 35 26 89 290° 22 29 - 29.74 0 Peak wind: 32 mph (28 kts) from 300° at 12 min
2017-11-18 22:00 38 36 26 90 290° 24 30 - 29.71 0 Peak wind: 37 mph (33 kts) from 290° at 04 min
2017-11-18 21:00 38 35 25 89 290° 29 36 - 29.68 0 Peak wind: 40 mph (35 kts) from 290° at 24 min
2017-11-18 20:00 39 35 26 87 290° 29 35 - 29.66 0 Peak wind: 43 mph (38 kts) from 300° at 04 min
2017-11-18 19:00 39 35 26 83 290° 32 40 - 29.62 0 Peak wind: 42 mph (37 kts) from 300° at 43 min
2017-11-18 18:00 40 34 27 80 300° 30 37 - 29.62 0 Peak wind: 43 mph (38 kts) from 300° at 07 min
2017-11-18 17:00 39 33 25 80 300° 31 43 - 29.60 0 Peak wind: 42 mph (37 kts) from 310° at 53 min
2017-11-18 16:00 37 34 24 89 280° 22 30 - 29.60 0 Peak wind: 35 mph (31 kts) from 290° at 21 min
2017-11-18 15:00 37 33 24 87 270° 20 28 - 29.60 0 Peak wind: 31 mph (27 kts) from 270° at 29 min
2017-11-18 14:00 36 32 23 84 260° 21 29 - 29.59 0 Peak wind: 32 mph (28 kts) from 270° at 42 min
2017-11-18 13:00 37 34 24 87 280° 28 36 - 29.58 0 Peak wind: 37 mph (33 kts) from 280° at 41 min
2017-11-18 12:00 37 31 24 78 280° 30 36 - 29.55 0 Peak wind: 37 mph (33 kts) from 280° at 49 min
2017-11-18 11:00 37 33 24 85 280° 25 31 - 29.52 0 Peak wind: 36 mph (32 kts) from 290° at 06 min
2017-11-18 10:00 37 33 23 85 290° 30 38 - 29.50 0 Peak wind: 43 mph (38 kts) from 290° at 19 min
2017-11-18 09:00 37 33 23 84 280° 31 40 - 29.47 0 Peak wind: 42 mph (37 kts) from 280° at 04 min
2017-11-18 08:00 38 32 24 78 280° 30 40 - 29.45 0 Peak wind: 41 mph (36 kts) from 280° at 45 min
2017-11-18 07:00 38 32 25 77 270° 25 36 - 29.45 0 Peak wind: 35 mph (31 kts) from 260° at 56 min
2017-11-18 06:00 38 33 27 80 260° 17 28 - 29.44 0 Peak wind: 27 mph (24 kts) from 270° at 55 min
2017-11-18 05:00 38 33 30 81 250° 14 - - 29.43 0 Peak wind: 23 mph (20 kts) from 250° at 19 min

Support USWX by starting your Amazon purchase here.